sensor_id;sensor_type;location;lat;lon;timestamp;temperature;humidity
10296;DHT22;5193;51.032;6.356;2023-11-19T00:00:06;12.10;99.90
10296;DHT22;5193;51.032;6.356;2023-11-19T00:02:38;12.10;99.90
10296;DHT22;5193;51.032;6.356;2023-11-19T00:05:05;12.10;99.90
10296;DHT22;5193;51.032;6.356;2023-11-19T00:07:35;12.10;99.90
10296;DHT22;5193;51.032;6.356;2023-11-19T00:10:02;12.20;99.90
10296;DHT22;5193;51.032;6.356;2023-11-19T00:12:39;12.20;99.90
10296;DHT22;5193;51.032;6.356;2023-11-19T00:15:06;12.20;99.90
10296;DHT22;5193;51.032;6.356;2023-11-19T00:17:34;12.20;99.90
10296;DHT22;5193;51.032;6.356;2023-11-19T00:20:01;12.20;99.90
10296;DHT22;5193;51.032;6.356;2023-11-19T00:22:31;12.20;99.90
10296;DHT22;5193;51.032;6.356;2023-11-19T00:24:57;12.20;99.90
10296;DHT22;5193;51.032;6.356;2023-11-19T00:27:27;12.20;99.90
10296;DHT22;5193;51.032;6.356;2023-11-19T00:29:53;12.30;99.90
10296;DHT22;5193;51.032;6.356;2023-11-19T00:32:19;12.20;99.90
10296;DHT22;5193;51.032;6.356;2023-11-19T00:34:47;12.20;99.90
10296;DHT22;5193;51.032;6.356;2023-11-19T00:37:14;12.20;99.90
10296;DHT22;5193;51.032;6.356;2023-11-19T00:39:43;12.20;99.90
10296;DHT22;5193;51.032;6.356;2023-11-19T00:42:12;12.20;99.90
10296;DHT22;5193;51.032;6.356;2023-11-19T00:44:45;12.30;99.90
10296;DHT22;5193;51.032;6.356;2023-11-19T00:47:12;12.20;99.90
10296;DHT22;5193;51.032;6.356;2023-11-19T00:49:38;12.30;99.90
10296;DHT22;5193;51.032;6.356;2023-11-19T00:52:03;12.30;99.90
10296;DHT22;5193;51.032;6.356;2023-11-19T00:54:29;12.30;99.90
10296;DHT22;5193;51.032;6.356;2023-11-19T00:56:55;12.30;99.90
10296;DHT22;5193;51.032;6.356;2023-11-19T00:59:21;12.30;99.90
10296;DHT22;5193;51.032;6.356;2023-11-19T01:01:48;12.30;99.90
10296;DHT22;5193;51.032;6.356;2023-11-19T01:04:14;12.30;99.90
10296;DHT22;5193;51.032;6.356;2023-11-19T01:06:47;12.30;99.90
10296;DHT22;5193;51.032;6.356;2023-11-19T01:09:13;12.30;99.90
10296;DHT22;5193;51.032;6.356;2023-11-19T01:11:40;12.30;99.90
10296;DHT22;5193;51.032;6.356;2023-11-19T01:14:06;12.30;99.90
10296;DHT22;5193;51.032;6.356;2023-11-19T01:16:31;12.30;99.90
10296;DHT22;5193;51.032;6.356;2023-11-19T01:18:57;12.40;99.90
10296;DHT22;5193;51.032;6.356;2023-11-19T01:21:23;12.40;99.90
10296;DHT22;5193;51.032;6.356;2023-11-19T01:23:49;12.40;99.90
10296;DHT22;5193;51.032;6.356;2023-11-19T01:26:15;12.40;99.90
10296;DHT22;5193;51.032;6.356;2023-11-19T01:28:43;12.40;99.90
10296;DHT22;5193;51.032;6.356;2023-11-19T01:31:12;12.40;99.90
10296;DHT22;5193;51.032;6.356;2023-11-19T01:33:49;12.50;99.90
10296;DHT22;5193;51.032;6.356;2023-11-19T01:36:16;12.50;99.90
10296;DHT22;5193;51.032;6.356;2023-11-19T01:38:46;12.50;99.90
10296;DHT22;5193;51.032;6.356;2023-11-19T01:41:12;12.50;99.90
10296;DHT22;5193;51.032;6.356;2023-11-19T01:43:39;12.50;99.90
10296;DHT22;5193;51.032;6.356;2023-11-19T01:46:09;12.50;99.90
10296;DHT22;5193;51.032;6.356;2023-11-19T01:48:41;12.50;99.90
10296;DHT22;5193;51.032;6.356;2023-11-19T01:54:30;12.60;99.90
10296;DHT22;5193;51.032;6.356;2023-11-19T01:56:56;12.60;99.90
10296;DHT22;5193;51.032;6.356;2023-11-19T01:59:23;12.60;99.90
10296;DHT22;5193;51.032;6.356;2023-11-19T02:01:53;12.60;99.90
10296;DHT22;5193;51.032;6.356;2023-11-19T02:04:21;12.70;99.90
10296;DHT22;5193;51.032;6.356;2023-11-19T02:06:49;12.70;99.90
10296;DHT22;5193;51.032;6.356;2023-11-19T02:09:17;12.70;99.90
10296;DHT22;5193;51.032;6.356;2023-11-19T02:11:46;12.70;99.90
10296;DHT22;5193;51.032;6.356;2023-11-19T02:14:17;12.70;99.90
10296;DHT22;5193;51.032;6.356;2023-11-19T02:16:44;12.80;99.90
10296;DHT22;5193;51.032;6.356;2023-11-19T02:19:10;12.70;99.90
10296;DHT22;5193;51.032;6.356;2023-11-19T02:21:40;12.80;99.90
10296;DHT22;5193;51.032;6.356;2023-11-19T02:24:11;12.80;99.90
10296;DHT22;5193;51.032;6.356;2023-11-19T02:29:22;12.90;99.90
10296;DHT22;5193;51.032;6.356;2023-11-19T02:31:48;12.80;99.90
10296;DHT22;5193;51.032;6.356;2023-11-19T02:34:17;12.80;99.90
10296;DHT22;5193;51.032;6.356;2023-11-19T02:36:43;12.80;99.90
10296;DHT22;5193;51.032;6.356;2023-11-19T02:39:09;12.80;99.90
10296;DHT22;5193;51.032;6.356;2023-11-19T02:41:38;12.80;99.90
10296;DHT22;5193;51.032;6.356;2023-11-19T02:44:06;12.80;99.90
10296;DHT22;5193;51.032;6.356;2023-11-19T02:46:34;12.70;99.90
10296;DHT22;5193;51.032;6.356;2023-11-19T02:49:03;12.70;99.90
10296;DHT22;5193;51.032;6.356;2023-11-19T02:54:54;12.70;99.90
10296;DHT22;5193;51.032;6.356;2023-11-19T02:57:21;12.70;99.90
10296;DHT22;5193;51.032;6.356;2023-11-19T02:59:48;12.70;99.90
10296;DHT22;5193;51.032;6.356;2023-11-19T03:02:13;12.70;99.90
10296;DHT22;5193;51.032;6.356;2023-11-19T03:04:41;12.70;99.90
10296;DHT22;5193;51.032;6.356;2023-11-19T03:07:09;12.70;99.90
10296;DHT22;5193;51.032;6.356;2023-11-19T03:09:37;12.70;99.90
10296;DHT22;5193;51.032;6.356;2023-11-19T03:12:06;12.70;99.90
10296;DHT22;5193;51.032;6.356;2023-11-19T03:14:34;12.80;99.90
10296;DHT22;5193;51.032;6.356;2023-11-19T03:17:03;12.80;99.90
10296;DHT22;5193;51.032;6.356;2023-11-19T03:19:30;12.80;99.90
10296;DHT22;5193;51.032;6.356;2023-11-19T03:21:56;12.80;99.90
10296;DHT22;5193;51.032;6.356;2023-11-19T03:24:22;12.80;99.90
10296;DHT22;5193;51.032;6.356;2023-11-19T03:26:50;12.80;99.90
10296;DHT22;5193;51.032;6.356;2023-11-19T03:29:15;12.80;99.90
10296;DHT22;5193;51.032;6.356;2023-11-19T03:31:44;12.80;99.90
10296;DHT22;5193;51.032;6.356;2023-11-19T03:34:10;12.80;99.90
10296;DHT22;5193;51.032;6.356;2023-11-19T03:36:36;12.80;99.90
10296;DHT22;5193;51.032;6.356;2023-11-19T03:39:04;12.70;99.90
10296;DHT22;5193;51.032;6.356;2023-11-19T03:41:33;12.70;99.90
10296;DHT22;5193;51.032;6.356;2023-11-19T03:44:00;12.70;99.90
10296;DHT22;5193;51.032;6.356;2023-11-19T03:46:26;12.70;99.90
10296;DHT22;5193;51.032;6.356;2023-11-19T03:48:52;12.70;99.90
10296;DHT22;5193;51.032;6.356;2023-11-19T03:51:21;12.70;99.90
10296;DHT22;5193;51.032;6.356;2023-11-19T03:53:53;12.60;99.90
10296;DHT22;5193;51.032;6.356;2023-11-19T03:56:20;12.60;99.90
10296;DHT22;5193;51.032;6.356;2023-11-19T03:58:46;12.50;99.90
10296;DHT22;5193;51.032;6.356;2023-11-19T04:01:12;12.50;99.90
10296;DHT22;5193;51.032;6.356;2023-11-19T04:03:44;12.40;99.90
10296;DHT22;5193;51.032;6.356;2023-11-19T04:06:17;12.40;99.90
10296;DHT22;5193;51.032;6.356;2023-11-19T04:08:46;12.40;99.90
10296;DHT22;5193;51.032;6.356;2023-11-19T04:11:12;12.40;99.90
10296;DHT22;5193;51.032;6.356;2023-11-19T04:13:37;12.40;99.90
10296;DHT22;5193;51.032;6.356;2023-11-19T04:16:03;12.30;99.90
10296;DHT22;5193;51.032;6.356;2023-11-19T04:18:30;12.40;99.90
10296;DHT22;5193;51.032;6.356;2023-11-19T04:20:57;12.30;99.90
10296;DHT22;5193;51.032;6.356;2023-11-19T04:23:24;12.30;99.90
10296;DHT22;5193;51.032;6.356;2023-11-19T04:25:50;12.30;99.90
10296;DHT22;5193;51.032;6.356;2023-11-19T04:28:16;12.30;99.90
10296;DHT22;5193;51.032;6.356;2023-11-19T04:30:42;12.20;99.90
10296;DHT22;5193;51.032;6.356;2023-11-19T04:33:10;12.20;99.90
10296;DHT22;5193;51.032;6.356;2023-11-19T04:35:37;12.20;99.90
10296;DHT22;5193;51.032;6.356;2023-11-19T04:38:03;12.20;99.90
10296;DHT22;5193;51.032;6.356;2023-11-19T04:40:30;12.20;99.90
10296;DHT22;5193;51.032;6.356;2023-11-19T04:42:56;12.20;99.90
10296;DHT22;5193;51.032;6.356;2023-11-19T04:45:24;12.20;99.90
10296;DHT22;5193;51.032;6.356;2023-11-19T04:47:50;12.30;99.90
10296;DHT22;5193;51.032;6.356;2023-11-19T04:50:16;12.30;99.90
10296;DHT22;5193;51.032;6.356;2023-11-19T04:52:41;12.30;99.90
10296;DHT22;5193;51.032;6.356;2023-11-19T04:55:12;12.30;99.90
10296;DHT22;5193;51.032;6.356;2023-11-19T04:57:39;12.20;99.90
10296;DHT22;5193;51.032;6.356;2023-11-19T05:00:05;12.20;99.90
10296;DHT22;5193;51.032;6.356;2023-11-19T05:02:33;12.20;99.90
10296;DHT22;5193;51.032;6.356;2023-11-19T05:05:02;12.20;99.90
10296;DHT22;5193;51.032;6.356;2023-11-19T05:07:30;12.10;99.90
10296;DHT22;5193;51.032;6.356;2023-11-19T05:09:56;12.10;99.90
10296;DHT22;5193;51.032;6.356;2023-11-19T05:12:21;12.00;99.90
10296;DHT22;5193;51.032;6.356;2023-11-19T05:14:48;12.00;99.90
10296;DHT22;5193;51.032;6.356;2023-11-19T05:17:17;12.00;99.90
10296;DHT22;5193;51.032;6.356;2023-11-19T05:19:50;12.00;99.90
10296;DHT22;5193;51.032;6.356;2023-11-19T05:22:17;11.90;99.90
10296;DHT22;5193;51.032;6.356;2023-11-19T05:24:46;11.90;99.90
10296;DHT22;5193;51.032;6.356;2023-11-19T05:27:12;11.90;99.90
10296;DHT22;5193;51.032;6.356;2023-11-19T05:29:38;11.80;99.90
10296;DHT22;5193;51.032;6.356;2023-11-19T05:32:05;11.80;99.90
10296;DHT22;5193;51.032;6.356;2023-11-19T05:34:30;11.80;99.90
10296;DHT22;5193;51.032;6.356;2023-11-19T05:36:56;11.80;99.90
10296;DHT22;5193;51.032;6.356;2023-11-19T05:39:24;11.80;99.90
10296;DHT22;5193;51.032;6.356;2023-11-19T05:41:51;11.80;99.90
10296;DHT22;5193;51.032;6.356;2023-11-19T05:44:20;11.80;99.90
10296;DHT22;5193;51.032;6.356;2023-11-19T05:46:45;11.70;99.90
10296;DHT22;5193;51.032;6.356;2023-11-19T05:49:12;11.80;99.90
10296;DHT22;5193;51.032;6.356;2023-11-19T05:51:43;11.70;99.90
10296;DHT22;5193;51.032;6.356;2023-11-19T05:54:15;11.70;99.90
10296;DHT22;5193;51.032;6.356;2023-11-19T06:00:04;11.70;99.90
10296;DHT22;5193;51.032;6.356;2023-11-19T06:02:34;11.70;99.90
10296;DHT22;5193;51.032;6.356;2023-11-19T06:05:01;11.70;99.90
10296;DHT22;5193;51.032;6.356;2023-11-19T06:07:28;11.70;99.90
10296;DHT22;5193;51.032;6.356;2023-11-19T06:09:53;11.70;99.90
10296;DHT22;5193;51.032;6.356;2023-11-19T06:12:20;11.80;99.90
10296;DHT22;5193;51.032;6.356;2023-11-19T06:14:47;11.80;99.90
10296;DHT22;5193;51.032;6.356;2023-11-19T06:17:14;11.80;99.90
10296;DHT22;5193;51.032;6.356;2023-11-19T06:19:40;11.70;99.90
10296;DHT22;5193;51.032;6.356;2023-11-19T06:22:05;11.70;99.90
10296;DHT22;5193;51.032;6.356;2023-11-19T06:24:32;11.70;99.90
10296;DHT22;5193;51.032;6.356;2023-11-19T06:26:58;11.60;99.90
10296;DHT22;5193;51.032;6.356;2023-11-19T06:29:24;11.60;99.90
10296;DHT22;5193;51.032;6.356;2023-11-19T06:31:50;11.50;99.90
10296;DHT22;5193;51.032;6.356;2023-11-19T06:34:16;11.50;99.90
10296;DHT22;5193;51.032;6.356;2023-11-19T06:36:45;11.50;99.90
10296;DHT22;5193;51.032;6.356;2023-11-19T06:39:10;11.50;99.90
10296;DHT22;5193;51.032;6.356;2023-11-19T06:41:36;11.50;99.90
10296;DHT22;5193;51.032;6.356;2023-11-19T06:44:05;11.50;99.90
10296;DHT22;5193;51.032;6.356;2023-11-19T06:46:36;11.40;99.90
10296;DHT22;5193;51.032;6.356;2023-11-19T06:49:02;11.50;99.90
10296;DHT22;5193;51.032;6.356;2023-11-19T06:51:27;11.40;99.90
10296;DHT22;5193;51.032;6.356;2023-11-19T06:53:55;11.40;99.90
10296;DHT22;5193;51.032;6.356;2023-11-19T06:56:22;11.40;99.90
10296;DHT22;5193;51.032;6.356;2023-11-19T06:58:48;11.30;99.90
10296;DHT22;5193;51.032;6.356;2023-11-19T07:01:18;11.30;99.90
10296;DHT22;5193;51.032;6.356;2023-11-19T07:03:47;11.30;99.90
10296;DHT22;5193;51.032;6.356;2023-11-19T07:06:13;11.20;99.90
10296;DHT22;5193;51.032;6.356;2023-11-19T07:08:40;11.20;99.90
10296;DHT22;5193;51.032;6.356;2023-11-19T07:11:18;11.20;99.90
10296;DHT22;5193;51.032;6.356;2023-11-19T07:13:44;11.20;99.90
10296;DHT22;5193;51.032;6.356;2023-11-19T07:16:14;11.10;99.90
10296;DHT22;5193;51.032;6.356;2023-11-19T07:18:40;11.20;99.90
10296;DHT22;5193;51.032;6.356;2023-11-19T07:21:07;11.10;99.90
10296;DHT22;5193;51.032;6.356;2023-11-19T07:23:35;11.10;99.90
10296;DHT22;5193;51.032;6.356;2023-11-19T07:26:04;11.20;99.90
10296;DHT22;5193;51.032;6.356;2023-11-19T07:28:31;11.20;99.90
10296;DHT22;5193;51.032;6.356;2023-11-19T07:30:59;11.20;99.90
10296;DHT22;5193;51.032;6.356;2023-11-19T07:33:25;11.10;99.90
10296;DHT22;5193;51.032;6.356;2023-11-19T07:35:51;12.20;99.90
10296;DHT22;5193;51.032;6.356;2023-11-19T07:38:23;11.10;99.90
10296;DHT22;5193;51.032;6.356;2023-11-19T07:40:49;11.20;99.90
10296;DHT22;5193;51.032;6.356;2023-11-19T07:43:14;11.20;99.90
10296;DHT22;5193;51.032;6.356;2023-11-19T07:45:41;11.20;99.90
10296;DHT22;5193;51.032;6.356;2023-11-19T07:48:09;11.30;99.90
10296;DHT22;5193;51.032;6.356;2023-11-19T07:50:34;11.20;99.90
10296;DHT22;5193;51.032;6.356;2023-11-19T07:53:00;11.30;99.90
10296;DHT22;5193;51.032;6.356;2023-11-19T07:55:29;11.20;99.90
10296;DHT22;5193;51.032;6.356;2023-11-19T07:57:55;11.30;99.90
10296;DHT22;5193;51.032;6.356;2023-11-19T08:00:21;11.30;99.90
10296;DHT22;5193;51.032;6.356;2023-11-19T08:02:52;11.40;99.90
10296;DHT22;5193;51.032;6.356;2023-11-19T08:05:28;11.40;99.90
10296;DHT22;5193;51.032;6.356;2023-11-19T08:07:57;11.40;99.90
10296;DHT22;5193;51.032;6.356;2023-11-19T08:10:24;11.50;99.90
10296;DHT22;5193;51.032;6.356;2023-11-19T08:12:49;11.50;99.90
10296;DHT22;5193;51.032;6.356;2023-11-19T08:15:15;11.50;99.90
10296;DHT22;5193;51.032;6.356;2023-11-19T08:17:43;11.50;99.90
10296;DHT22;5193;51.032;6.356;2023-11-19T08:20:13;11.50;99.90
10296;DHT22;5193;51.032;6.356;2023-11-19T08:22:40;11.50;99.90
10296;DHT22;5193;51.032;6.356;2023-11-19T08:25:06;11.50;99.90
10296;DHT22;5193;51.032;6.356;2023-11-19T08:27:33;11.50;99.90
10296;DHT22;5193;51.032;6.356;2023-11-19T08:29:59;11.60;99.90
10296;DHT22;5193;51.032;6.356;2023-11-19T08:32:37;11.60;99.90
10296;DHT22;5193;51.032;6.356;2023-11-19T08:35:03;11.60;99.90
10296;DHT22;5193;51.032;6.356;2023-11-19T08:37:29;11.60;99.90
10296;DHT22;5193;51.032;6.356;2023-11-19T08:39:58;11.60;99.90
10296;DHT22;5193;51.032;6.356;2023-11-19T08:42:30;11.70;99.90
10296;DHT22;5193;51.032;6.356;2023-11-19T08:44:56;11.70;99.90
10296;DHT22;5193;51.032;6.356;2023-11-19T08:47:22;11.70;99.90
10296;DHT22;5193;51.032;6.356;2023-11-19T08:49:51;11.70;99.90
10296;DHT22;5193;51.032;6.356;2023-11-19T08:52:20;11.80;99.90
10296;DHT22;5193;51.032;6.356;2023-11-19T08:54:46;11.80;99.90
10296;DHT22;5193;51.032;6.356;2023-11-19T08:57:11;11.80;99.90
10296;DHT22;5193;51.032;6.356;2023-11-19T08:59:40;11.80;99.90
10296;DHT22;5193;51.032;6.356;2023-11-19T09:02:06;11.80;99.90
10296;DHT22;5193;51.032;6.356;2023-11-19T09:04:32;11.80;99.90
10296;DHT22;5193;51.032;6.356;2023-11-19T09:06:58;11.90;99.90
10296;DHT22;5193;51.032;6.356;2023-11-19T09:09:24;11.90;99.90
10296;DHT22;5193;51.032;6.356;2023-11-19T09:11:50;12.00;99.90
10296;DHT22;5193;51.032;6.356;2023-11-19T09:14:20;12.00;99.90
10296;DHT22;5193;51.032;6.356;2023-11-19T09:16:51;12.00;99.90
10296;DHT22;5193;51.032;6.356;2023-11-19T09:19:17;12.10;99.90
10296;DHT22;5193;51.032;6.356;2023-11-19T09:21:43;12.20;99.90
10296;DHT22;5193;51.032;6.356;2023-11-19T09:24:09;12.20;99.90
10296;DHT22;5193;51.032;6.356;2023-11-19T09:26:35;12.30;99.90
10296;DHT22;5193;51.032;6.356;2023-11-19T09:29:01;12.40;99.90
10296;DHT22;5193;51.032;6.356;2023-11-19T09:31:27;12.40;99.90
10296;DHT22;5193;51.032;6.356;2023-11-19T09:33:53;12.40;99.90
10296;DHT22;5193;51.032;6.356;2023-11-19T09:36:18;12.50;99.90
10296;DHT22;5193;51.032;6.356;2023-11-19T09:38:45;12.50;99.90
10296;DHT22;5193;51.032;6.356;2023-11-19T09:41:12;12.50;99.90
10296;DHT22;5193;51.032;6.356;2023-11-19T09:43:42;12.60;99.90
10296;DHT22;5193;51.032;6.356;2023-11-19T09:46:13;12.60;99.90
10296;DHT22;5193;51.032;6.356;2023-11-19T09:48:41;12.60;99.90
10296;DHT22;5193;51.032;6.356;2023-11-19T09:51:08;12.70;99.90
10296;DHT22;5193;51.032;6.356;2023-11-19T09:53:35;12.70;99.90
10296;DHT22;5193;51.032;6.356;2023-11-19T09:56:02;12.80;99.90
10296;DHT22;5193;51.032;6.356;2023-11-19T09:58:30;12.70;99.90
10296;DHT22;5193;51.032;6.356;2023-11-19T10:00:57;12.80;99.90
10296;DHT22;5193;51.032;6.356;2023-11-19T10:03:35;12.80;99.90
10296;DHT22;5193;51.032;6.356;2023-11-19T10:06:11;12.90;99.90
10296;DHT22;5193;51.032;6.356;2023-11-19T10:08:41;12.90;99.90
10296;DHT22;5193;51.032;6.356;2023-11-19T10:11:07;12.90;99.90
10296;DHT22;5193;51.032;6.356;2023-11-19T10:13:36;12.90;99.90
10296;DHT22;5193;51.032;6.356;2023-11-19T10:16:12;13.00;99.90
10296;DHT22;5193;51.032;6.356;2023-11-19T10:18:51;12.90;99.90
10296;DHT22;5193;51.032;6.356;2023-11-19T10:21:23;12.90;99.90
10296;DHT22;5193;51.032;6.356;2023-11-19T10:23:55;12.90;99.90
10296;DHT22;5193;51.032;6.356;2023-11-19T10:26:26;13.00;99.90
10296;DHT22;5193;51.032;6.356;2023-11-19T10:28:54;13.00;99.90
10296;DHT22;5193;51.032;6.356;2023-11-19T10:31:23;13.00;99.90
10296;DHT22;5193;51.032;6.356;2023-11-19T10:33:52;13.10;99.90
10296;DHT22;5193;51.032;6.356;2023-11-19T10:36:21;13.10;99.90
10296;DHT22;5193;51.032;6.356;2023-11-19T10:38:56;13.20;99.90
10296;DHT22;5193;51.032;6.356;2023-11-19T10:41:34;13.20;99.90
10296;DHT22;5193;51.032;6.356;2023-11-19T10:44:00;13.30;99.90
10296;DHT22;5193;51.032;6.356;2023-11-19T10:46:39;13.30;99.90
10296;DHT22;5193;51.032;6.356;2023-11-19T10:49:06;13.30;99.90
10296;DHT22;5193;51.032;6.356;2023-11-19T10:51:32;13.30;99.90
10296;DHT22;5193;51.032;6.356;2023-11-19T10:54:18;13.20;99.90
10296;DHT22;5193;51.032;6.356;2023-11-19T10:56:47;13.20;99.90
10296;DHT22;5193;51.032;6.356;2023-11-19T10:59:21;13.20;99.90
10296;DHT22;5193;51.032;6.356;2023-11-19T11:05:15;13.20;99.90
10296;DHT22;5193;51.032;6.356;2023-11-19T11:08:04;13.20;99.90
10296;DHT22;5193;51.032;6.356;2023-11-19T11:10:32;13.30;99.90
10296;DHT22;5193;51.032;6.356;2023-11-19T11:13:03;13.40;99.90
10296;DHT22;5193;51.032;6.356;2023-11-19T11:15:30;13.40;99.90
10296;DHT22;5193;51.032;6.356;2023-11-19T11:18:00;13.50;99.90
10296;DHT22;5193;51.032;6.356;2023-11-19T11:20:31;13.50;99.90
10296;DHT22;5193;51.032;6.356;2023-11-19T11:37:36;13.70;99.90
10296;DHT22;5193;51.032;6.356;2023-11-19T11:40:06;13.60;99.90
10296;DHT22;5193;51.032;6.356;2023-11-19T11:42:36;13.70;99.90
10296;DHT22;5193;51.032;6.356;2023-11-19T11:45:05;13.70;99.90
10296;DHT22;5193;51.032;6.356;2023-11-19T11:50:26;13.70;99.90
10296;DHT22;5193;51.032;6.356;2023-11-19T11:55:59;13.70;99.90
10296;DHT22;5193;51.032;6.356;2023-11-19T11:58:32;13.80;99.90
10296;DHT22;5193;51.032;6.356;2023-11-19T12:01:05;13.80;99.90
10296;DHT22;5193;51.032;6.356;2023-11-19T12:03:33;13.80;99.90
10296;DHT22;5193;51.032;6.356;2023-11-19T12:05:59;13.80;99.90
10296;DHT22;5193;51.032;6.356;2023-11-19T12:08:27;13.80;99.90
10296;DHT22;5193;51.032;6.356;2023-11-19T12:10:57;13.70;99.90
10296;DHT22;5193;51.032;6.356;2023-11-19T12:13:57;13.80;99.90
10296;DHT22;5193;51.032;6.356;2023-11-19T12:16:28;13.70;99.90
10296;DHT22;5193;51.032;6.356;2023-11-19T12:18:55;13.70;99.90
10296;DHT22;5193;51.032;6.356;2023-11-19T12:21:28;13.70;99.90
10296;DHT22;5193;51.032;6.356;2023-11-19T12:23:59;13.70;99.90
10296;DHT22;5193;51.032;6.356;2023-11-19T12:26:37;13.70;99.90
10296;DHT22;5193;51.032;6.356;2023-11-19T12:29:06;13.70;99.90
10296;DHT22;5193;51.032;6.356;2023-11-19T12:31:33;13.70;99.90
10296;DHT22;5193;51.032;6.356;2023-11-19T12:34:04;13.70;99.90
10296;DHT22;5193;51.032;6.356;2023-11-19T12:36:36;13.70;99.90
10296;DHT22;5193;51.032;6.356;2023-11-19T12:39:04;13.60;99.90
10296;DHT22;5193;51.032;6.356;2023-11-19T12:41:31;13.40;99.90
10296;DHT22;5193;51.032;6.356;2023-11-19T12:44:09;13.40;99.90
10296;DHT22;5193;51.032;6.356;2023-11-19T12:46:38;13.40;99.90
10296;DHT22;5193;51.032;6.356;2023-11-19T12:49:06;13.40;99.90
10296;DHT22;5193;51.032;6.356;2023-11-19T12:51:32;13.40;99.90
10296;DHT22;5193;51.032;6.356;2023-11-19T12:54:04;13.40;99.90
10296;DHT22;5193;51.032;6.356;2023-11-19T12:56:30;13.40;99.90
10296;DHT22;5193;51.032;6.356;2023-11-19T12:58:56;13.50;99.90
10296;DHT22;5193;51.032;6.356;2023-11-19T13:01:23;13.40;99.90
10296;DHT22;5193;51.032;6.356;2023-11-19T13:03:48;13.50;99.90
10296;DHT22;5193;51.032;6.356;2023-11-19T13:06:15;13.50;99.90
10296;DHT22;5193;51.032;6.356;2023-11-19T13:08:48;13.40;99.90
10296;DHT22;5193;51.032;6.356;2023-11-19T13:11:40;13.40;99.90
10296;DHT22;5193;51.032;6.356;2023-11-19T13:14:06;13.40;99.90
10296;DHT22;5193;51.032;6.356;2023-11-19T13:16:51;13.40;99.90
10296;DHT22;5193;51.032;6.356;2023-11-19T13:19:19;13.50;99.90
10296;DHT22;5193;51.032;6.356;2023-11-19T13:21:45;13.50;99.90
10296;DHT22;5193;51.032;6.356;2023-11-19T13:24:13;13.50;99.90
10296;DHT22;5193;51.032;6.356;2023-11-19T13:26:39;13.50;99.90
10296;DHT22;5193;51.032;6.356;2023-11-19T13:29:05;13.60;99.90
10296;DHT22;5193;51.032;6.356;2023-11-19T13:31:31;13.60;99.90
10296;DHT22;5193;51.032;6.356;2023-11-19T13:33:56;13.70;99.90
10296;DHT22;5193;51.032;6.356;2023-11-19T13:36:24;13.70;99.90
10296;DHT22;5193;51.032;6.356;2023-11-19T13:38:50;13.60;99.90
10296;DHT22;5193;51.032;6.356;2023-11-19T13:41:16;13.60;99.90
10296;DHT22;5193;51.032;6.356;2023-11-19T13:43:46;13.60;99.90
10296;DHT22;5193;51.032;6.356;2023-11-19T13:46:11;13.50;99.90
10296;DHT22;5193;51.032;6.356;2023-11-19T13:48:37;13.50;99.90
10296;DHT22;5193;51.032;6.356;2023-11-19T13:51:05;13.40;99.90
10296;DHT22;5193;51.032;6.356;2023-11-19T13:53:34;13.30;99.90
10296;DHT22;5193;51.032;6.356;2023-11-19T13:55:59;13.30;99.90
10296;DHT22;5193;51.032;6.356;2023-11-19T13:58:27;13.20;99.90
10296;DHT22;5193;51.032;6.356;2023-11-19T14:00:53;13.20;99.90
10296;DHT22;5193;51.032;6.356;2023-11-19T14:03:19;13.10;99.90
10296;DHT22;5193;51.032;6.356;2023-11-19T14:05:50;13.10;99.90
10296;DHT22;5193;51.032;6.356;2023-11-19T14:08:17;13.10;99.90
10296;DHT22;5193;51.032;6.356;2023-11-19T14:10:43;13.10;99.90
10296;DHT22;5193;51.032;6.356;2023-11-19T14:13:09;13.10;99.90
10296;DHT22;5193;51.032;6.356;2023-11-19T14:15:39;13.10;99.90
10296;DHT22;5193;51.032;6.356;2023-11-19T14:18:05;13.10;99.90
10296;DHT22;5193;51.032;6.356;2023-11-19T14:20:31;13.10;99.90
10296;DHT22;5193;51.032;6.356;2023-11-19T14:22:58;13.10;99.90
10296;DHT22;5193;51.032;6.356;2023-11-19T14:25:25;13.10;99.90
10296;DHT22;5193;51.032;6.356;2023-11-19T14:27:52;13.00;99.90
10296;DHT22;5193;51.032;6.356;2023-11-19T14:30:18;13.00;99.90
10296;DHT22;5193;51.032;6.356;2023-11-19T14:32:43;13.00;99.90
10296;DHT22;5193;51.032;6.356;2023-11-19T14:35:11;12.90;99.90
10296;DHT22;5193;51.032;6.356;2023-11-19T14:37:37;12.90;99.90
10296;DHT22;5193;51.032;6.356;2023-11-19T14:40:03;12.80;99.90
10296;DHT22;5193;51.032;6.356;2023-11-19T14:42:36;12.80;99.90
10296;DHT22;5193;51.032;6.356;2023-11-19T14:45:05;12.70;99.90
10296;DHT22;5193;51.032;6.356;2023-11-19T14:47:41;12.70;99.90
10296;DHT22;5193;51.032;6.356;2023-11-19T14:50:11;12.70;99.90
10296;DHT22;5193;51.032;6.356;2023-11-19T14:52:41;12.60;99.90
10296;DHT22;5193;51.032;6.356;2023-11-19T14:55:07;12.60;99.90
10296;DHT22;5193;51.032;6.356;2023-11-19T14:57:35;12.60;99.90
10296;DHT22;5193;51.032;6.356;2023-11-19T15:00:03;12.50;99.90
10296;DHT22;5193;51.032;6.356;2023-11-19T15:02:39;12.50;99.90
10296;DHT22;5193;51.032;6.356;2023-11-19T15:05:04;12.50;99.90
10296;DHT22;5193;51.032;6.356;2023-11-19T15:07:38;12.50;99.90
10296;DHT22;5193;51.032;6.356;2023-11-19T15:10:04;12.40;99.90
10296;DHT22;5193;51.032;6.356;2023-11-19T15:12:38;12.40;99.90
10296;DHT22;5193;51.032;6.356;2023-11-19T15:15:09;12.40;99.90
10296;DHT22;5193;51.032;6.356;2023-11-19T15:17:40;12.40;99.90
10296;DHT22;5193;51.032;6.356;2023-11-19T15:20:07;12.30;99.90
10296;DHT22;5193;51.032;6.356;2023-11-19T15:22:32;12.30;99.90
10296;DHT22;5193;51.032;6.356;2023-11-19T15:25:01;12.30;99.90
10296;DHT22;5193;51.032;6.356;2023-11-19T15:27:36;12.30;99.90
10296;DHT22;5193;51.032;6.356;2023-11-19T15:30:02;12.20;99.90
10296;DHT22;5193;51.032;6.356;2023-11-19T15:32:28;12.10;99.90
10296;DHT22;5193;51.032;6.356;2023-11-19T15:34:57;12.10;99.90
10296;DHT22;5193;51.032;6.356;2023-11-19T15:37:23;12.10;99.90
10296;DHT22;5193;51.032;6.356;2023-11-19T15:39:50;12.00;99.90
10296;DHT22;5193;51.032;6.356;2023-11-19T15:42:17;12.00;99.90
10296;DHT22;5193;51.032;6.356;2023-11-19T15:44:46;12.00;99.90
10296;DHT22;5193;51.032;6.356;2023-11-19T15:47:11;12.00;99.90
10296;DHT22;5193;51.032;6.356;2023-11-19T15:49:37;11.90;99.90
10296;DHT22;5193;51.032;6.356;2023-11-19T15:52:03;11.90;99.90
10296;DHT22;5193;51.032;6.356;2023-11-19T15:54:32;11.90;99.90
10296;DHT22;5193;51.032;6.356;2023-11-19T15:56:58;11.90;99.90
10296;DHT22;5193;51.032;6.356;2023-11-19T15:59:23;11.90;99.90
10296;DHT22;5193;51.032;6.356;2023-11-19T16:01:51;11.90;99.90
10296;DHT22;5193;51.032;6.356;2023-11-19T16:04:17;12.00;99.90
10296;DHT22;5193;51.032;6.356;2023-11-19T16:06:43;11.90;99.90
10296;DHT22;5193;51.032;6.356;2023-11-19T16:09:09;12.00;99.90
10296;DHT22;5193;51.032;6.356;2023-11-19T16:11:43;11.90;99.90
10296;DHT22;5193;51.032;6.356;2023-11-19T16:14:12;11.90;99.90
10296;DHT22;5193;51.032;6.356;2023-11-19T16:16:38;11.90;99.90
10296;DHT22;5193;51.032;6.356;2023-11-19T16:19:07;11.90;99.90
10296;DHT22;5193;51.032;6.356;2023-11-19T16:21:36;12.00;99.90
10296;DHT22;5193;51.032;6.356;2023-11-19T16:24:03;12.00;99.90
10296;DHT22;5193;51.032;6.356;2023-11-19T16:26:32;12.00;99.90